Smithfield, Illinois
Current Conditions -  °F | °C
As of 11:35 AM on Thursday 23 Oct 2014 (Local Time) from KMQB Reporting Station
Broken Clouds Broken Clouds  
Wind Chill: 53°   Ceiling: 4700
Heat Index: 53°   Visibility: 10mi
Dew Point: 44°   Wind: 9mph
Humidity: 70%   Direction: 190°S
Pressure: 30.19"   Gusts: NA
Location:  40.47°N, 90.29°W
Report Text: KMQB 231635Z AUTO 19008KT 10SM BKN047 BKN050 12/07 A3019 RMK AO2 T01190066
Loading
Personal Weather Stations






























Interactive Weather Map
Tropical Storm Tracking
New forecast layout! Learn more

10-Day Weather Forecast

Advertisements
Track Severe Weather on mobile